sensor_id;sensor_type;location;lat;lon;timestamp;P1;durP1;ratioP1;P2;durP2;ratioP2
13238;SDS011;6686;51.292;4.166;2023-07-29T00:00:12;3.70;;;2.60;;
13238;SDS011;6686;51.292;4.166;2023-07-29T00:02:58;2.40;;;2.20;;
13238;SDS011;6686;51.292;4.166;2023-07-29T00:05:44;3.23;;;2.33;;
13238;SDS011;6686;51.292;4.166;2023-07-29T00:08:30;3.03;;;2.57;;
13238;SDS011;6686;51.292;4.166;2023-07-29T00:11:16;3.50;;;2.40;;
13238;SDS011;6686;51.292;4.166;2023-07-29T00:14:04;3.80;;;2.80;;
13238;SDS011;6686;51.292;4.166;2023-07-29T00:16:50;4.17;;;2.73;;
13238;SDS011;6686;51.292;4.166;2023-07-29T00:19:36;5.37;;;3.30;;
13238;SDS011;6686;51.292;4.166;2023-07-29T00:22:22;4.00;;;2.97;;
13238;SDS011;6686;51.292;4.166;2023-07-29T00:25:08;3.87;;;3.20;;
13238;SDS011;6686;51.292;4.166;2023-07-29T00:27:55;2.97;;;2.53;;
13238;SDS011;6686;51.292;4.166;2023-07-29T00:30:41;3.30;;;2.90;;
13238;SDS011;6686;51.292;4.166;2023-07-29T00:33:26;3.57;;;2.90;;
13238;SDS011;6686;51.292;4.166;2023-07-29T00:36:12;3.72;;;2.60;;
13238;SDS011;6686;51.292;4.166;2023-07-29T00:38:58;3.77;;;2.60;;
13238;SDS011;6686;51.292;4.166;2023-07-29T00:41:44;2.80;;;2.50;;
13238;SDS011;6686;51.292;4.166;2023-07-29T00:44:30;5.90;;;2.70;;
13238;SDS011;6686;51.292;4.166;2023-07-29T00:47:19;4.53;;;2.63;;
13238;SDS011;6686;51.292;4.166;2023-07-29T00:50:05;3.83;;;2.90;;
13238;SDS011;6686;51.292;4.166;2023-07-29T00:52:57;3.37;;;2.60;;
13238;SDS011;6686;51.292;4.166;2023-07-29T00:55:40;4.20;;;2.40;;
13238;SDS011;6686;51.292;4.166;2023-07-29T00:58:26;3.00;;;2.40;;
13238;SDS011;6686;51.292;4.166;2023-07-29T01:01:12;3.67;;;2.63;;
13238;SDS011;6686;51.292;4.166;2023-07-29T01:03:58;4.27;;;2.87;;
13238;SDS011;6686;51.292;4.166;2023-07-29T01:09:51;5.35;;;3.35;;
13238;SDS011;6686;51.292;4.166;2023-07-29T01:12:42;3.73;;;3.30;;
13238;SDS011;6686;51.292;4.166;2023-07-29T01:18:32;9.30;;;5.70;;
13238;SDS011;6686;51.292;4.166;2023-07-29T01:21:18;8.30;;;6.53;;
13238;SDS011;6686;51.292;4.166;2023-07-29T01:24:04;9.07;;;5.87;;
13238;SDS011;6686;51.292;4.166;2023-07-29T01:26:50;9.50;;;6.10;;
13238;SDS011;6686;51.292;4.166;2023-07-29T01:29:36;8.98;;;7.10;;
13238;SDS011;6686;51.292;4.166;2023-07-29T01:32:36;8.50;;;6.57;;
13238;SDS011;6686;51.292;4.166;2023-07-29T01:38:24;6.33;;;5.20;;
13238;SDS011;6686;51.292;4.166;2023-07-29T01:41:07;6.87;;;4.53;;
13238;SDS011;6686;51.292;4.166;2023-07-29T01:43:53;7.60;;;4.30;;
13238;SDS011;6686;51.292;4.166;2023-07-29T01:46:39;4.67;;;3.60;;
13238;SDS011;6686;51.292;4.166;2023-07-29T01:49:25;5.00;;;3.83;;
13238;SDS011;6686;51.292;4.166;2023-07-29T01:52:11;7.03;;;3.90;;
13238;SDS011;6686;51.292;4.166;2023-07-29T01:54:57;4.37;;;3.23;;
13238;SDS011;6686;51.292;4.166;2023-07-29T01:57:43;4.20;;;3.80;;
13238;SDS011;6686;51.292;4.166;2023-07-29T02:00:29;4.60;;;3.50;;
13238;SDS011;6686;51.292;4.166;2023-07-29T02:03:14;6.27;;;3.83;;
13238;SDS011;6686;51.292;4.166;2023-07-29T02:06:00;4.23;;;3.30;;
13238;SDS011;6686;51.292;4.166;2023-07-29T02:08:46;6.63;;;3.13;;
13238;SDS011;6686;51.292;4.166;2023-07-29T02:11:32;4.53;;;3.47;;
13238;SDS011;6686;51.292;4.166;2023-07-29T02:14:18;3.90;;;3.33;;
13238;SDS011;6686;51.292;4.166;2023-07-29T02:17:04;4.13;;;3.47;;
13238;SDS011;6686;51.292;4.166;2023-07-29T02:19:49;4.27;;;3.30;;
13238;SDS011;6686;51.292;4.166;2023-07-29T02:22:35;4.23;;;3.10;;
13238;SDS011;6686;51.292;4.166;2023-07-29T02:25:21;3.87;;;3.10;;
13238;SDS011;6686;51.292;4.166;2023-07-29T02:28:07;4.37;;;3.33;;
13238;SDS011;6686;51.292;4.166;2023-07-29T02:34:03;5.57;;;3.33;;
13238;SDS011;6686;51.292;4.166;2023-07-29T02:36:49;4.33;;;3.37;;
13238;SDS011;6686;51.292;4.166;2023-07-29T02:39:34;4.47;;;3.33;;
13238;SDS011;6686;51.292;4.166;2023-07-29T02:42:20;3.73;;;3.30;;
13238;SDS011;6686;51.292;4.166;2023-07-29T02:45:06;5.83;;;3.87;;
13238;SDS011;6686;51.292;4.166;2023-07-29T02:47:52;4.70;;;3.80;;
13238;SDS011;6686;51.292;4.166;2023-07-29T02:50:38;5.07;;;3.78;;
13238;SDS011;6686;51.292;4.166;2023-07-29T02:53:24;5.93;;;3.50;;
13238;SDS011;6686;51.292;4.166;2023-07-29T02:56:10;4.13;;;3.73;;
13238;SDS011;6686;51.292;4.166;2023-07-29T02:58:56;4.73;;;3.30;;
13238;SDS011;6686;51.292;4.166;2023-07-29T03:01:42;5.27;;;3.60;;
13238;SDS011;6686;51.292;4.166;2023-07-29T03:04:28;3.77;;;3.47;;
13238;SDS011;6686;51.292;4.166;2023-07-29T03:07:15;4.15;;;3.67;;
13238;SDS011;6686;51.292;4.166;2023-07-29T03:10:01;3.80;;;3.07;;
13238;SDS011;6686;51.292;4.166;2023-07-29T03:12:47;3.70;;;3.00;;
13238;SDS011;6686;51.292;4.166;2023-07-29T03:15:32;4.50;;;3.43;;
13238;SDS011;6686;51.292;4.166;2023-07-29T03:18:19;5.70;;;3.50;;
13238;SDS011;6686;51.292;4.166;2023-07-29T03:21:04;3.53;;;2.83;;
13238;SDS011;6686;51.292;4.166;2023-07-29T03:23:50;5.68;;;3.67;;
13238;SDS011;6686;51.292;4.166;2023-07-29T03:26:36;3.93;;;3.50;;
13238;SDS011;6686;51.292;4.166;2023-07-29T03:29:22;3.57;;;3.27;;
13238;SDS011;6686;51.292;4.166;2023-07-29T03:32:08;5.37;;;3.40;;
13238;SDS011;6686;51.292;4.166;2023-07-29T03:34:54;7.70;;;3.33;;
13238;SDS011;6686;51.292;4.166;2023-07-29T03:37:40;4.93;;;3.13;;
13238;SDS011;6686;51.292;4.166;2023-07-29T03:40:26;4.40;;;3.40;;
13238;SDS011;6686;51.292;4.166;2023-07-29T03:43:12;8.33;;;3.40;;
13238;SDS011;6686;51.292;4.166;2023-07-29T03:45:58;3.80;;;3.30;;
13238;SDS011;6686;51.292;4.166;2023-07-29T03:48:44;4.97;;;3.80;;
13238;SDS011;6686;51.292;4.166;2023-07-29T03:51:30;6.50;;;3.50;;
13238;SDS011;6686;51.292;4.166;2023-07-29T03:54:15;6.60;;;3.77;;
13238;SDS011;6686;51.292;4.166;2023-07-29T03:57:01;5.28;;;3.85;;
13238;SDS011;6686;51.292;4.166;2023-07-29T03:59:47;4.95;;;4.07;;
13238;SDS011;6686;51.292;4.166;2023-07-29T04:02:32;6.40;;;3.67;;
13238;SDS011;6686;51.292;4.166;2023-07-29T04:05:18;4.23;;;3.70;;
13238;SDS011;6686;51.292;4.166;2023-07-29T04:08:04;6.87;;;3.80;;
13238;SDS011;6686;51.292;4.166;2023-07-29T04:10:50;5.00;;;3.50;;
13238;SDS011;6686;51.292;4.166;2023-07-29T04:13:36;5.20;;;3.50;;
13238;SDS011;6686;51.292;4.166;2023-07-29T04:16:22;3.90;;;3.50;;
13238;SDS011;6686;51.292;4.166;2023-07-29T04:19:08;3.97;;;3.57;;
13238;SDS011;6686;51.292;4.166;2023-07-29T04:21:54;6.97;;;3.80;;
13238;SDS011;6686;51.292;4.166;2023-07-29T04:24:39;6.77;;;4.07;;
13238;SDS011;6686;51.292;4.166;2023-07-29T04:27:25;6.20;;;4.30;;
13238;SDS011;6686;51.292;4.166;2023-07-29T04:30:11;4.27;;;3.87;;
13238;SDS011;6686;51.292;4.166;2023-07-29T04:32:57;6.27;;;4.00;;
13238;SDS011;6686;51.292;4.166;2023-07-29T04:35:43;7.47;;;3.97;;
13238;SDS011;6686;51.292;4.166;2023-07-29T04:38:32;4.97;;;3.63;;
13238;SDS011;6686;51.292;4.166;2023-07-29T04:41:18;4.68;;;4.12;;
13238;SDS011;6686;51.292;4.166;2023-07-29T04:44:04;6.10;;;4.50;;
13238;SDS011;6686;51.292;4.166;2023-07-29T04:46:50;4.70;;;4.23;;
13238;SDS011;6686;51.292;4.166;2023-07-29T04:49:36;4.80;;;3.87;;
13238;SDS011;6686;51.292;4.166;2023-07-29T04:52:21;4.30;;;3.57;;
13238;SDS011;6686;51.292;4.166;2023-07-29T04:55:07;6.80;;;3.70;;
13238;SDS011;6686;51.292;4.166;2023-07-29T04:57:53;4.47;;;3.60;;
13238;SDS011;6686;51.292;4.166;2023-07-29T05:00:39;5.30;;;4.00;;
13238;SDS011;6686;51.292;4.166;2023-07-29T05:03:25;4.77;;;4.03;;
13238;SDS011;6686;51.292;4.166;2023-07-29T05:06:11;6.18;;;4.28;;
13238;SDS011;6686;51.292;4.166;2023-07-29T05:08:57;5.07;;;4.32;;
13238;SDS011;6686;51.292;4.166;2023-07-29T05:11:43;4.67;;;3.53;;
13238;SDS011;6686;51.292;4.166;2023-07-29T05:14:32;6.30;;;3.40;;
13238;SDS011;6686;51.292;4.166;2023-07-29T05:17:17;4.83;;;3.20;;
13238;SDS011;6686;51.292;4.166;2023-07-29T05:20:03;3.70;;;2.70;;
13238;SDS011;6686;51.292;4.166;2023-07-29T05:22:49;3.40;;;2.93;;
13238;SDS011;6686;51.292;4.166;2023-07-29T05:25:35;4.17;;;2.90;;
13238;SDS011;6686;51.292;4.166;2023-07-29T05:28:22;5.78;;;3.47;;
13238;SDS011;6686;51.292;4.166;2023-07-29T05:31:08;3.77;;;3.37;;
13238;SDS011;6686;51.292;4.166;2023-07-29T05:33:53;3.77;;;3.37;;
13238;SDS011;6686;51.292;4.166;2023-07-29T05:36:39;3.77;;;2.97;;
13238;SDS011;6686;51.292;4.166;2023-07-29T05:39:25;3.33;;;3.03;;
13238;SDS011;6686;51.292;4.166;2023-07-29T05:42:11;4.67;;;3.50;;
13238;SDS011;6686;51.292;4.166;2023-07-29T05:44:57;5.20;;;3.40;;
13238;SDS011;6686;51.292;4.166;2023-07-29T05:47:42;3.40;;;3.10;;
13238;SDS011;6686;51.292;4.166;2023-07-29T05:50:29;3.40;;;3.10;;
13238;SDS011;6686;51.292;4.166;2023-07-29T05:53:15;3.40;;;2.97;;
13238;SDS011;6686;51.292;4.166;2023-07-29T05:56:01;6.20;;;3.40;;
13238;SDS011;6686;51.292;4.166;2023-07-29T05:58:47;4.00;;;3.58;;
13238;SDS011;6686;51.292;4.166;2023-07-29T06:01:33;3.70;;;3.25;;
13238;SDS011;6686;51.292;4.166;2023-07-29T06:04:19;4.07;;;2.57;;
13238;SDS011;6686;51.292;4.166;2023-07-29T06:07:05;3.37;;;2.63;;
13238;SDS011;6686;51.292;4.166;2023-07-29T06:09:51;2.83;;;2.40;;
13238;SDS011;6686;51.292;4.166;2023-07-29T06:12:36;3.37;;;2.53;;
13238;SDS011;6686;51.292;4.166;2023-07-29T06:15:22;3.75;;;2.78;;
13238;SDS011;6686;51.292;4.166;2023-07-29T06:18:08;3.90;;;2.33;;
13238;SDS011;6686;51.292;4.166;2023-07-29T06:20:54;3.73;;;2.60;;
13238;SDS011;6686;51.292;4.166;2023-07-29T06:23:40;3.20;;;2.67;;
13238;SDS011;6686;51.292;4.166;2023-07-29T06:26:25;3.28;;;2.80;;
13238;SDS011;6686;51.292;4.166;2023-07-29T06:29:12;4.40;;;2.70;;
13238;SDS011;6686;51.292;4.166;2023-07-29T06:31:58;3.33;;;2.60;;
13238;SDS011;6686;51.292;4.166;2023-07-29T06:34:44;4.97;;;3.10;;
13238;SDS011;6686;51.292;4.166;2023-07-29T06:37:30;3.83;;;2.33;;
13238;SDS011;6686;51.292;4.166;2023-07-29T06:40:16;3.78;;;2.45;;
13238;SDS011;6686;51.292;4.166;2023-07-29T06:43:02;3.10;;;2.45;;
13238;SDS011;6686;51.292;4.166;2023-07-29T06:45:49;3.03;;;2.23;;
13238;SDS011;6686;51.292;4.166;2023-07-29T06:48:36;2.50;;;2.13;;
13238;SDS011;6686;51.292;4.166;2023-07-29T06:51:21;3.83;;;2.47;;
13238;SDS011;6686;51.292;4.166;2023-07-29T06:54:08;3.27;;;2.17;;
13238;SDS011;6686;51.292;4.166;2023-07-29T06:56:53;3.20;;;2.17;;
13238;SDS011;6686;51.292;4.166;2023-07-29T06:59:39;3.13;;;2.20;;
13238;SDS011;6686;51.292;4.166;2023-07-29T07:02:25;3.33;;;2.40;;
13238;SDS011;6686;51.292;4.166;2023-07-29T07:05:11;3.07;;;2.03;;
13238;SDS011;6686;51.292;4.166;2023-07-29T07:07:57;2.87;;;2.42;;
13238;SDS011;6686;51.292;4.166;2023-07-29T07:10:43;3.13;;;2.37;;
13238;SDS011;6686;51.292;4.166;2023-07-29T07:13:28;3.12;;;2.45;;
13238;SDS011;6686;51.292;4.166;2023-07-29T07:16:14;3.90;;;2.40;;
13238;SDS011;6686;51.292;4.166;2023-07-29T07:19:00;4.23;;;2.20;;
13238;SDS011;6686;51.292;4.166;2023-07-29T07:21:46;2.07;;;1.87;;
13238;SDS011;6686;51.292;4.166;2023-07-29T07:24:32;2.43;;;2.03;;
13238;SDS011;6686;51.292;4.166;2023-07-29T07:27:17;4.53;;;2.20;;
13238;SDS011;6686;51.292;4.166;2023-07-29T07:30:04;4.07;;;2.13;;
13238;SDS011;6686;51.292;4.166;2023-07-29T07:32:50;2.50;;;2.30;;
13238;SDS011;6686;51.292;4.166;2023-07-29T07:35:36;5.40;;;2.37;;
13238;SDS011;6686;51.292;4.166;2023-07-29T07:38:21;2.70;;;2.10;;
13238;SDS011;6686;51.292;4.166;2023-07-29T07:41:07;2.17;;;1.80;;
13238;SDS011;6686;51.292;4.166;2023-07-29T07:43:53;2.28;;;2.08;;
13238;SDS011;6686;51.292;4.166;2023-07-29T07:46:39;2.20;;;2.00;;
13238;SDS011;6686;51.292;4.166;2023-07-29T07:49:25;3.27;;;1.83;;
13238;SDS011;6686;51.292;4.166;2023-07-29T07:52:11;3.13;;;1.90;;
13238;SDS011;6686;51.292;4.166;2023-07-29T07:54:57;2.70;;;2.20;;
13238;SDS011;6686;51.292;4.166;2023-07-29T07:57:43;2.63;;;2.10;;
13238;SDS011;6686;51.292;4.166;2023-07-29T08:00:29;2.73;;;2.07;;
13238;SDS011;6686;51.292;4.166;2023-07-29T08:03:15;2.43;;;1.90;;
13238;SDS011;6686;51.292;4.166;2023-07-29T08:06:01;3.00;;;2.00;;
13238;SDS011;6686;51.292;4.166;2023-07-29T08:08:46;3.50;;;1.93;;
13238;SDS011;6686;51.292;4.166;2023-07-29T08:11:32;2.20;;;1.83;;
13238;SDS011;6686;51.292;4.166;2023-07-29T08:14:19;2.77;;;2.10;;
13238;SDS011;6686;51.292;4.166;2023-07-29T08:17:04;2.63;;;2.00;;
13238;SDS011;6686;51.292;4.166;2023-07-29T08:19:51;3.70;;;2.00;;
13238;SDS011;6686;51.292;4.166;2023-07-29T08:22:37;4.07;;;1.93;;
13238;SDS011;6686;51.292;4.166;2023-07-29T08:25:23;2.50;;;2.20;;
13238;SDS011;6686;51.292;4.166;2023-07-29T08:28:09;2.83;;;2.00;;
13238;SDS011;6686;51.292;4.166;2023-07-29T08:30:55;3.27;;;2.47;;
13238;SDS011;6686;51.292;4.166;2023-07-29T08:33:41;3.20;;;2.27;;
13238;SDS011;6686;51.292;4.166;2023-07-29T08:36:27;2.70;;;2.30;;
13238;SDS011;6686;51.292;4.166;2023-07-29T08:39:13;3.85;;;2.40;;
13238;SDS011;6686;51.292;4.166;2023-07-29T08:42:07;2.17;;;1.97;;
13238;SDS011;6686;51.292;4.166;2023-07-29T08:44:51;2.45;;;2.25;;
13238;SDS011;6686;51.292;4.166;2023-07-29T08:47:37;4.23;;;2.30;;
13238;SDS011;6686;51.292;4.166;2023-07-29T08:50:23;2.40;;;2.00;;
13238;SDS011;6686;51.292;4.166;2023-07-29T08:53:09;2.67;;;1.97;;
13238;SDS011;6686;51.292;4.166;2023-07-29T08:55:55;2.30;;;2.10;;
13238;SDS011;6686;51.292;4.166;2023-07-29T08:58:41;3.07;;;2.47;;
13238;SDS011;6686;51.292;4.166;2023-07-29T09:01:27;3.33;;;2.37;;
13238;SDS011;6686;51.292;4.166;2023-07-29T09:04:13;2.63;;;2.43;;
13238;SDS011;6686;51.292;4.166;2023-07-29T09:06:59;2.57;;;2.33;;
13238;SDS011;6686;51.292;4.166;2023-07-29T09:09:45;4.80;;;2.75;;
13238;SDS011;6686;51.292;4.166;2023-07-29T09:12:31;2.93;;;2.60;;
13238;SDS011;6686;51.292;4.166;2023-07-29T09:15:26;3.33;;;2.20;;
13238;SDS011;6686;51.292;4.166;2023-07-29T09:18:12;3.47;;;2.53;;
13238;SDS011;6686;51.292;4.166;2023-07-29T09:20:58;3.47;;;2.30;;
13238;SDS011;6686;51.292;4.166;2023-07-29T09:23:44;3.20;;;2.30;;
13238;SDS011;6686;51.292;4.166;2023-07-29T09:26:29;2.50;;;2.30;;
13238;SDS011;6686;51.292;4.166;2023-07-29T09:29:15;3.13;;;2.20;;
13238;SDS011;6686;51.292;4.166;2023-07-29T09:32:20;3.00;;;2.20;;
13238;SDS011;6686;51.292;4.166;2023-07-29T09:35:02;3.50;;;2.60;;
13238;SDS011;6686;51.292;4.166;2023-07-29T09:37:48;2.40;;;2.20;;
13238;SDS011;6686;51.292;4.166;2023-07-29T09:40:38;2.70;;;2.30;;
13238;SDS011;6686;51.292;4.166;2023-07-29T09:43:20;2.30;;;2.10;;
13238;SDS011;6686;51.292;4.166;2023-07-29T09:46:06;2.43;;;2.10;;
13238;SDS011;6686;51.292;4.166;2023-07-29T09:48:53;2.50;;;2.30;;
13238;SDS011;6686;51.292;4.166;2023-07-29T09:51:38;2.70;;;2.37;;
13238;SDS011;6686;51.292;4.166;2023-07-29T09:54:24;2.63;;;2.23;;
13238;SDS011;6686;51.292;4.166;2023-07-29T09:57:13;2.70;;;1.87;;
13238;SDS011;6686;51.292;4.166;2023-07-29T09:59:59;3.27;;;2.60;;
13238;SDS011;6686;51.292;4.166;2023-07-29T10:02:45;2.87;;;2.50;;
13238;SDS011;6686;51.292;4.166;2023-07-29T10:05:31;3.03;;;2.50;;
13238;SDS011;6686;51.292;4.166;2023-07-29T10:08:17;6.10;;;2.50;;
13238;SDS011;6686;51.292;4.166;2023-07-29T10:11:04;3.70;;;2.70;;
13238;SDS011;6686;51.292;4.166;2023-07-29T10:13:49;3.73;;;2.80;;
13238;SDS011;6686;51.292;4.166;2023-07-29T10:16:39;3.43;;;2.93;;
13238;SDS011;6686;51.292;4.166;2023-07-29T10:19:24;4.10;;;3.23;;
13238;SDS011;6686;51.292;4.166;2023-07-29T10:22:10;4.73;;;2.93;;
13238;SDS011;6686;51.292;4.166;2023-07-29T10:24:56;4.20;;;3.20;;
13238;SDS011;6686;51.292;4.166;2023-07-29T10:27:43;5.63;;;3.40;;
13238;SDS011;6686;51.292;4.166;2023-07-29T10:30:46;3.23;;;2.93;;
13238;SDS011;6686;51.292;4.166;2023-07-29T10:33:32;4.53;;;3.00;;
13238;SDS011;6686;51.292;4.166;2023-07-29T10:36:18;3.87;;;2.93;;
13238;SDS011;6686;51.292;4.166;2023-07-29T10:39:04;2.90;;;2.50;;
13238;SDS011;6686;51.292;4.166;2023-07-29T10:41:57;3.60;;;2.87;;
13238;SDS011;6686;51.292;4.166;2023-07-29T10:44:52;3.42;;;2.67;;
13238;SDS011;6686;51.292;4.166;2023-07-29T10:47:40;2.97;;;2.67;;
13238;SDS011;6686;51.292;4.166;2023-07-29T10:50:25;3.43;;;3.00;;
13238;SDS011;6686;51.292;4.166;2023-07-29T10:53:11;4.07;;;3.03;;
13238;SDS011;6686;51.292;4.166;2023-07-29T10:55:57;1.70;;;1.60;;
13238;SDS011;6686;51.292;4.166;2023-07-29T10:58:43;2.27;;;1.60;;
13238;SDS011;6686;51.292;4.166;2023-07-29T11:01:29;1.13;;;1.10;;
13238;SDS011;6686;51.292;4.166;2023-07-29T11:10:03;1.10;;;0.97;;
13238;SDS011;6686;51.292;4.166;2023-07-29T11:12:45;1.05;;;0.90;;
13238;SDS011;6686;51.292;4.166;2023-07-29T11:15:34;0.97;;;0.97;;
13238;SDS011;6686;51.292;4.166;2023-07-29T11:18:20;1.10;;;1.00;;
13238;SDS011;6686;51.292;4.166;2023-07-29T11:21:05;1.20;;;1.10;;
13238;SDS011;6686;51.292;4.166;2023-07-29T11:23:52;2.43;;;1.47;;
13238;SDS011;6686;51.292;4.166;2023-07-29T11:26:37;1.40;;;1.30;;
13238;SDS011;6686;51.292;4.166;2023-07-29T11:29:23;2.03;;;1.30;;
13238;SDS011;6686;51.292;4.166;2023-07-29T11:32:09;2.33;;;1.30;;
13238;SDS011;6686;51.292;4.166;2023-07-29T11:34:55;1.40;;;1.30;;
13238;SDS011;6686;51.292;4.166;2023-07-29T11:37:41;1.67;;;1.50;;
13238;SDS011;6686;51.292;4.166;2023-07-29T11:40:26;2.87;;;1.63;;
13238;SDS011;6686;51.292;4.166;2023-07-29T11:43:17;2.20;;;1.60;;
13238;SDS011;6686;51.292;4.166;2023-07-29T11:46:00;4.03;;;1.90;;
13238;SDS011;6686;51.292;4.166;2023-07-29T11:48:44;2.10;;;1.90;;
13238;SDS011;6686;51.292;4.166;2023-07-29T11:51:30;2.33;;;2.10;;
13238;SDS011;6686;51.292;4.166;2023-07-29T11:54:16;2.72;;;2.25;;
13238;SDS011;6686;51.292;4.166;2023-07-29T11:57:06;3.00;;;2.30;;
13238;SDS011;6686;51.292;4.166;2023-07-29T11:59:52;2.40;;;2.20;;
13238;SDS011;6686;51.292;4.166;2023-07-29T12:02:42;2.10;;;1.90;;
13238;SDS011;6686;51.292;4.166;2023-07-29T12:05:24;3.67;;;2.00;;
13238;SDS011;6686;51.292;4.166;2023-07-29T12:08:10;3.08;;;2.20;;
13238;SDS011;6686;51.292;4.166;2023-07-29T12:10:56;2.33;;;2.00;;
13238;SDS011;6686;51.292;4.166;2023-07-29T12:13:41;2.90;;;2.20;;
13238;SDS011;6686;51.292;4.166;2023-07-29T12:16:28;2.83;;;2.60;;
13238;SDS011;6686;51.292;4.166;2023-07-29T12:19:13;3.10;;;2.60;;
13238;SDS011;6686;51.292;4.166;2023-07-29T12:21:59;3.77;;;2.80;;
13238;SDS011;6686;51.292;4.166;2023-07-29T12:24:45;3.10;;;2.03;;
13238;SDS011;6686;51.292;4.166;2023-07-29T12:27:30;2.47;;;2.27;;
13238;SDS011;6686;51.292;4.166;2023-07-29T12:30:19;2.83;;;2.23;;
13238;SDS011;6686;51.292;4.166;2023-07-29T12:33:02;2.07;;;1.87;;
13238;SDS011;6686;51.292;4.166;2023-07-29T12:35:50;3.50;;;2.90;;
13238;SDS011;6686;51.292;4.166;2023-07-29T12:38:34;5.10;;;3.27;;
13238;SDS011;6686;51.292;4.166;2023-07-29T12:41:20;3.72;;;3.00;;
13238;SDS011;6686;51.292;4.166;2023-07-29T12:44:06;5.95;;;2.60;;
13238;SDS011;6686;51.292;4.166;2023-07-29T12:46:52;4.93;;;3.12;;
13238;SDS011;6686;51.292;4.166;2023-07-29T12:49:38;4.17;;;3.03;;
13238;SDS011;6686;51.292;4.166;2023-07-29T12:52:24;4.67;;;3.10;;
13238;SDS011;6686;51.292;4.166;2023-07-29T12:55:10;4.62;;;3.45;;
13238;SDS011;6686;51.292;4.166;2023-07-29T12:57:57;3.85;;;3.40;;
13238;SDS011;6686;51.292;4.166;2023-07-29T13:00:43;3.60;;;3.20;;
13238;SDS011;6686;51.292;4.166;2023-07-29T13:03:32;4.25;;;3.80;;
13238;SDS011;6686;51.292;4.166;2023-07-29T13:06:15;4.57;;;3.80;;
13238;SDS011;6686;51.292;4.166;2023-07-29T13:09:01;4.90;;;4.50;;
13238;SDS011;6686;51.292;4.166;2023-07-29T13:11:47;5.12;;;4.72;;
13238;SDS011;6686;51.292;4.166;2023-07-29T13:14:32;5.32;;;4.72;;
13238;SDS011;6686;51.292;4.166;2023-07-29T13:17:18;4.72;;;4.20;;
13238;SDS011;6686;51.292;4.166;2023-07-29T13:20:04;4.78;;;4.37;;
13238;SDS011;6686;51.292;4.166;2023-07-29T13:22:50;3.90;;;3.60;;
13238;SDS011;6686;51.292;4.166;2023-07-29T13:25:36;3.90;;;2.62;;
13238;SDS011;6686;51.292;4.166;2023-07-29T13:28:22;3.70;;;3.05;;
13238;SDS011;6686;51.292;4.166;2023-07-29T13:31:08;3.25;;;2.30;;
13238;SDS011;6686;51.292;4.166;2023-07-29T13:33:53;2.62;;;2.40;;
13238;SDS011;6686;51.292;4.166;2023-07-29T13:36:39;3.33;;;2.05;;
13238;SDS011;6686;51.292;4.166;2023-07-29T13:39:26;3.15;;;2.10;;
13238;SDS011;6686;51.292;4.166;2023-07-29T13:42:11;2.63;;;2.00;;
13238;SDS011;6686;51.292;4.166;2023-07-29T13:44:57;2.00;;;1.50;;
13238;SDS011;6686;51.292;4.166;2023-07-29T13:47:43;3.00;;;1.80;;
13238;SDS011;6686;51.292;4.166;2023-07-29T13:50:29;2.40;;;2.03;;
13238;SDS011;6686;51.292;4.166;2023-07-29T13:53:15;2.53;;;1.80;;
13238;SDS011;6686;51.292;4.166;2023-07-29T13:56:01;2.25;;;1.75;;
13238;SDS011;6686;51.292;4.166;2023-07-29T13:58:46;2.87;;;1.60;;
13238;SDS011;6686;51.292;4.166;2023-07-29T14:01:32;3.00;;;1.83;;
13238;SDS011;6686;51.292;4.166;2023-07-29T14:04:18;2.13;;;1.93;;
13238;SDS011;6686;51.292;4.166;2023-07-29T14:07:05;2.05;;;1.87;;
13238;SDS011;6686;51.292;4.166;2023-07-29T14:09:51;3.55;;;2.12;;
13238;SDS011;6686;51.292;4.166;2023-07-29T14:12:37;3.00;;;2.10;;
13238;SDS011;6686;51.292;4.166;2023-07-29T14:15:23;6.87;;;3.23;;
13238;SDS011;6686;51.292;4.166;2023-07-29T14:18:08;7.77;;;3.13;;
13238;SDS011;6686;51.292;4.166;2023-07-29T14:20:54;2.73;;;2.17;;
13238;SDS011;6686;51.292;4.166;2023-07-29T14:23:40;3.20;;;2.60;;
13238;SDS011;6686;51.292;4.166;2023-07-29T14:26:26;2.60;;;2.30;;
13238;SDS011;6686;51.292;4.166;2023-07-29T14:29:12;4.90;;;2.83;;
13238;SDS011;6686;51.292;4.166;2023-07-29T14:31:58;4.37;;;3.60;;
13238;SDS011;6686;51.292;4.166;2023-07-29T14:34:44;4.30;;;3.90;;
13238;SDS011;6686;51.292;4.166;2023-07-29T14:37:30;5.18;;;4.15;;
13238;SDS011;6686;51.292;4.166;2023-07-29T14:40:16;5.40;;;3.80;;
13238;SDS011;6686;51.292;4.166;2023-07-29T14:43:02;4.70;;;3.50;;
13238;SDS011;6686;51.292;4.166;2023-07-29T14:45:48;4.37;;;3.40;;
13238;SDS011;6686;51.292;4.166;2023-07-29T14:48:34;3.87;;;3.57;;
13238;SDS011;6686;51.292;4.166;2023-07-29T14:51:20;3.03;;;2.73;;
13238;SDS011;6686;51.292;4.166;2023-07-29T14:54:07;4.63;;;2.80;;
13238;SDS011;6686;51.292;4.166;2023-07-29T14:56:53;3.20;;;2.50;;
13238;SDS011;6686;51.292;4.166;2023-07-29T14:59:39;2.73;;;2.10;;
13238;SDS011;6686;51.292;4.166;2023-07-29T15:02:25;2.30;;;2.07;;
13238;SDS011;6686;51.292;4.166;2023-07-29T15:05:11;1.80;;;1.70;;
13238;SDS011;6686;51.292;4.166;2023-07-29T15:07:56;1.70;;;1.60;;
13238;SDS011;6686;51.292;4.166;2023-07-29T15:10:46;2.00;;;1.80;;
13238;SDS011;6686;51.292;4.166;2023-07-29T15:13:32;2.53;;;1.80;;
13238;SDS011;6686;51.292;4.166;2023-07-29T15:16:17;4.80;;;3.67;;
13238;SDS011;6686;51.292;4.166;2023-07-29T15:19:03;1.50;;;1.40;;
13238;SDS011;6686;51.292;4.166;2023-07-29T15:21:49;1.50;;;1.40;;
13238;SDS011;6686;51.292;4.166;2023-07-29T15:24:34;2.97;;;1.30;;
13238;SDS011;6686;51.292;4.166;2023-07-29T15:27:20;1.53;;;1.43;;
13238;SDS011;6686;51.292;4.166;2023-07-29T15:30:06;1.50;;;1.27;;
13238;SDS011;6686;51.292;4.166;2023-07-29T15:32:52;1.80;;;1.27;;
13238;SDS011;6686;51.292;4.166;2023-07-29T15:35:39;1.30;;;1.20;;
13238;SDS011;6686;51.292;4.166;2023-07-29T15:38:25;2.30;;;1.47;;
13238;SDS011;6686;51.292;4.166;2023-07-29T15:41:12;2.60;;;1.20;;
13238;SDS011;6686;51.292;4.166;2023-07-29T15:43:58;1.40;;;1.13;;
13238;SDS011;6686;51.292;4.166;2023-07-29T15:46:43;1.20;;;1.10;;
13238;SDS011;6686;51.292;4.166;2023-07-29T15:49:29;1.93;;;1.70;;
13238;SDS011;6686;51.292;4.166;2023-07-29T15:52:15;3.87;;;1.60;;
13238;SDS011;6686;51.292;4.166;2023-07-29T15:55:01;2.72;;;2.00;;
13238;SDS011;6686;51.292;4.166;2023-07-29T15:57:46;2.83;;;2.50;;
13238;SDS011;6686;51.292;4.166;2023-07-29T16:00:32;1.60;;;1.47;;
13238;SDS011;6686;51.292;4.166;2023-07-29T16:03:18;2.90;;;2.00;;
13238;SDS011;6686;51.292;4.166;2023-07-29T16:06:04;1.95;;;1.70;;
13238;SDS011;6686;51.292;4.166;2023-07-29T16:08:50;2.53;;;1.77;;
13238;SDS011;6686;51.292;4.166;2023-07-29T16:11:36;2.60;;;1.77;;
13238;SDS011;6686;51.292;4.166;2023-07-29T16:14:22;2.50;;;1.87;;
13238;SDS011;6686;51.292;4.166;2023-07-29T16:17:07;2.73;;;1.70;;
13238;SDS011;6686;51.292;4.166;2023-07-29T16:22:39;2.83;;;1.70;;
13238;SDS011;6686;51.292;4.166;2023-07-29T16:25:25;1.70;;;1.60;;
13238;SDS011;6686;51.292;4.166;2023-07-29T16:28:11;2.00;;;1.80;;
13238;SDS011;6686;51.292;4.166;2023-07-29T16:30:57;1.90;;;1.70;;
13238;SDS011;6686;51.292;4.166;2023-07-29T16:33:43;2.85;;;1.80;;
13238;SDS011;6686;51.292;4.166;2023-07-29T16:36:28;3.13;;;2.00;;
13238;SDS011;6686;51.292;4.166;2023-07-29T16:39:14;4.80;;;2.13;;
13238;SDS011;6686;51.292;4.166;2023-07-29T16:42:00;2.67;;;2.00;;
13238;SDS011;6686;51.292;4.166;2023-07-29T16:44:46;2.30;;;2.10;;
13238;SDS011;6686;51.292;4.166;2023-07-29T16:47:32;3.13;;;1.93;;
13238;SDS011;6686;51.292;4.166;2023-07-29T16:50:19;5.70;;;2.43;;
13238;SDS011;6686;51.292;4.166;2023-07-29T16:53:04;3.97;;;2.20;;
13238;SDS011;6686;51.292;4.166;2023-07-29T16:55:50;4.47;;;2.43;;
13238;SDS011;6686;51.292;4.166;2023-07-29T16:58:36;4.67;;;2.20;;
13238;SDS011;6686;51.292;4.166;2023-07-29T17:01:22;3.37;;;2.00;;
13238;SDS011;6686;51.292;4.166;2023-07-29T17:04:08;5.17;;;2.40;;
13238;SDS011;6686;51.292;4.166;2023-07-29T17:06:54;6.07;;;2.30;;
13238;SDS011;6686;51.292;4.166;2023-07-29T17:09:40;4.67;;;2.27;;
13238;SDS011;6686;51.292;4.166;2023-07-29T17:12:26;6.20;;;2.13;;
13238;SDS011;6686;51.292;4.166;2023-07-29T17:15:12;5.67;;;2.50;;